Libuse, LA (71348)

2:50 PM CST on December 28, 2014 (GMT -0600)
Good Earth | Change Station
CLOSE
Current Station
Personal Weather Station
Location: Alexandria, LA
Elevation: 80 ft
Nearby Weather Stations

Elev 80 ft 31.27 °N, 92.50 °W | Updated 29 seconds ago

Rain
Rain
48.1 °F
Feels Like 48 °F
N
0.0
Wind Variable Wind from NNE
Gusts 4.0 mph

Today
High -- | Low -- °F
--% Chance of Precip.
Yesterday
High -- | Low -- °F
Precip. -- in
7:07 AM 5:15 PM
Waxing Crescent, 51% visible
Pressure 30.13 in
Visibility 4.0 miles
Clouds Mostly Cloudy 700 ft
Mostly Cloudy 1200 ft
Overcast 9500 ft
Windchill 48 °F
Dew Point 47 °F
Humidity 94%
Rainfall 0.18 in
Snow Depth Not available.
UV 1 out of 12
Pollen .40 out of 12
Air Quality Not available.
Flu Activity Not available.
METAR KAEX 281953Z 02004KT 4SM RA BR BKN007 BKN012 OVC095 08/08 A3011 RMK AO2 SLP202 P0002 T00830078

More Conditions Fewer Conditions

Pressure 30.13 in
Visibility 4.0 miles
Clouds Mostly Cloudy 700 ft
Mostly Cloudy 1200 ft
Overcast 9500 ft
Windchill 48 °F
Dew Point 47 °F
Humidity 94%
Rainfall 0.18 in
Snow Depth Not available.
UV 1 out of 12
Pollen .40 out of 12
Air Quality Not available.
Flu Activity Not available.
METAR KAEX 281953Z 02004KT 4SM RA BR BKN007 BKN012 OVC095 08/08 A3011 RMK AO2 SLP202 P0002 T00830078

More Conditions Fewer Conditions

Nowcast | as of 12:18 PM CST on December 28, 2014

Light to moderate rain will continue over the area through early this afternoon. Most of the activity will be over southeast Texas and west central Louisiana. Rain amounts will be a quarter inch or less. Further east...rain amounts in patchy light rain will be less than a tenth inch.

×

10-Day Weather Forecast

Almanac

Astronomy

Dec. 28, 2014 Rise Set
Actual Time
Civil Twilight
Nautical Twilight
Astronomical Twilight
Moon
Length of Visible Light
Length of Day
Tomorrow will be .
, % of the Moon is Illuminated

Today's Extremes

State Highs State Lows

Community

WunderPhotos

Upload Photos

1,781,414 photos uploaded!

WunderBlogs® & News

Nearby

Air Quality

  Air Quality AQ Index Pollutant
Not available.

Snow Depth

Station Depth Elevation

Earthquake Activity

City Distance Mag. Time & Date
Minimum magnitude displayed is 2.5.

Coastal Water Temperatures

Place Temperature

Nearby Weather Stations